Time;durP1;ratioP1;P1;durP2;ratioP2;P2;SDS_P1;SDS_P2;PMS_P1;PMS_P2;Temp;Humidity;BMP_temperature;BMP_pressure;BME280_temperature;BME280_humidity;BME280_pressure;Samples;Min_cycle;Max_cycle;Signal;HPM_P1;HPM_P2
2022/12/11 00:02:06;;;;;;;46.33;33.50;;;5.00;99.90;;;5.02;93.26;100945.47;5052849;28;20040;-73
2022/12/11 00:04:36;;;;;;;43.87;32.17;;;4.90;99.90;;;4.80;93.07;100899.63;5051272;28;20048;-73
2022/12/11 00:07:04;;;;;;;41.28;31.42;;;4.90;99.90;;;4.30;93.09;100791.28;5051477;28;20124;-74
2022/12/11 00:09:34;;;;;;;40.70;32.23;;;5.00;99.90;;;5.20;92.59;100970.31;5051761;28;20049;-73
2022/12/11 00:12:04;;;;;;;40.65;31.63;;;5.10;99.90;;;5.28;92.11;100944.22;5052388;28;20091;-70
2022/12/11 00:14:32;;;;;;;42.97;30.67;;;5.20;99.90;;;5.36;91.95;100940.00;5052922;28;20041;-70
2022/12/11 00:17:01;;;;;;;36.55;29.88;;;5.20;99.90;;;5.17;91.49;100909.94;5052324;28;20037;-69
2022/12/11 00:19:29;;;;;;;38.37;29.07;;;5.30;99.90;;;5.24;91.27;100924.03;5051960;28;20101;-63
2022/12/11 00:21:59;;;;;;;36.80;28.70;;;5.30;99.90;;;5.04;91.02;100909.69;5050884;28;20056;-68
2022/12/11 00:24:28;;;;;;;38.45;29.23;;;5.20;99.90;;;5.14;91.03;100937.84;5067722;28;20375;-76
2022/12/11 00:26:57;;;;;;;41.17;30.00;;;5.10;99.90;;;4.83;91.23;100872.59;5052012;28;20628;-77
2022/12/11 00:29:25;;;;;;;38.30;30.40;;;5.10;99.90;;;5.22;91.24;100946.72;5052281;28;20045;-76
2022/12/11 00:31:54;;;;;;;41.97;30.23;;;5.10;99.90;;;5.19;91.31;100938.78;5052144;28;20178;-77
2022/12/11 00:34:25;;;;;;;38.17;29.57;;;5.10;99.90;;;5.16;91.00;100933.50;5052098;28;20128;-77
2022/12/11 00:36:54;;;;;;;39.97;29.73;;;5.10;99.90;;;5.18;91.34;100929.16;5052417;28;20052;-76
2022/12/11 00:39:23;;;;;;;41.90;30.70;;;5.10;99.90;;;5.13;90.87;100918.59;5052030;28;20052;-76
2022/12/11 00:41:52;;;;;;;39.35;29.27;;;5.20;99.90;;;5.01;90.84;100901.78;5052090;28;20044;-76
2022/12/11 00:44:21;;;;;;;43.23;31.23;;;5.20;99.90;;;5.29;90.45;100966.94;5051795;28;20064;-76
2022/12/11 00:46:49;;;;;;;42.83;30.97;;;5.20;99.90;;;5.11;90.41;100940.41;5051775;28;20037;-76
2022/12/11 00:49:18;;;;;;;44.58;32.67;;;5.20;99.90;;;5.28;90.37;100942.44;5067386;28;20069;-76
2022/12/11 00:51:47;;;;;;;44.17;32.37;;;5.20;99.90;;;5.19;90.37;100928.28;5067413;28;20045;-76
2022/12/11 00:54:15;;;;;;;44.10;30.13;;;5.20;99.90;;;4.77;90.03;100862.00;5051859;28;20137;-76
2022/12/11 00:56:45;;;;;;;44.03;31.93;;;5.20;99.90;;;5.24;90.49;100938.03;5050613;28;20449;-75
2022/12/11 00:59:13;;;;;;;43.45;30.30;;;5.20;99.90;;;5.24;90.38;100947.63;5067249;28;20117;-76
2022/12/11 01:01:42;;;;;;;45.38;31.13;;;5.10;99.90;;;5.15;90.23;100957.97;5053918;28;20068;-76
2022/12/11 01:04:11;;;;;;;43.73;30.87;;;5.10;99.90;;;5.18;90.43;100948.41;5055118;28;20045;-76
2022/12/11 01:06:39;;;;;;;46.60;32.27;;;5.10;99.90;;;4.92;90.14;100897.22;5055111;28;20076;-76
2022/12/11 01:11:55;;;;;;;44.20;30.67;;;5.10;99.90;;;4.33;89.63;100795.69;5055220;28;20450;-76
2022/12/11 01:14:23;;;;;;;39.33;28.95;;;5.10;99.90;;;5.05;89.75;100925.41;5055361;28;20045;-76
2022/12/11 01:16:52;;;;;;;42.77;30.93;;;5.10;99.90;;;4.98;89.77;100933.16;5070571;28;20049;-76
2022/12/11 01:19:21;;;;;;;44.17;31.50;;;5.00;99.90;;;4.82;90.03;100907.53;5053862;28;20049;-76
2022/12/11 01:21:49;;;;;;;43.00;31.27;;;5.00;99.90;;;4.86;90.12;100912.84;5055017;28;20041;-75
2022/12/11 01:24:18;;;;;;;48.20;33.37;;;5.00;99.90;;;4.91;90.47;100932.16;5054630;28;20503;-76
2022/12/11 01:26:47;;;;;;;42.00;31.33;;;5.00;99.90;;;4.98;90.03;100948.88;5054740;28;20045;-76
2022/12/11 01:29:17;;;;;;;43.03;31.30;;;5.00;99.90;;;4.87;90.34;100932.97;5054659;28;20491;-76
2022/12/11 01:31:48;;;;;;;46.60;32.90;;;4.90;99.90;;;5.01;90.76;100954.19;5055252;28;20083;-76
2022/12/11 01:34:16;;;;;;;47.07;33.07;;;4.90;99.90;;;5.02;90.71;100955.94;5054556;28;20061;-76
2022/12/11 01:36:48;;;;;;;52.30;33.23;;;4.90;99.90;;;4.94;90.76;100954.91;5054460;28;20399;-76
2022/12/11 01:39:16;;;;;;;52.00;36.27;;;4.80;99.90;;;4.44;90.69;100876.22;5054534;28;20433;-77
2022/12/11 01:41:45;;;;;;;52.27;36.07;;;4.80;99.90;;;4.70;91.07;100909.91;5054478;28;20399;-77
2022/12/11 01:45:06;;;;;;;55.70;37.30;;;4.70;99.90;;;4.86;90.77;100943.41;5054678;28;20124;-77
2022/12/11 01:47:36;;;;;;;52.28;36.20;;;4.70;99.90;;;4.78;90.88;100919.66;5053464;28;20056;-77
2022/12/11 01:50:06;;;;;;;56.78;38.40;;;4.70;99.90;;;4.79;91.10;100923.16;5053375;28;20049;-77
2022/12/11 01:52:34;;;;;;;55.30;37.20;;;4.80;99.90;;;4.58;90.59;100885.25;5054262;28;20431;-77
2022/12/11 01:55:03;;;;;;;50.13;36.97;;;4.80;99.90;;;4.96;91.00;100930.50;5054502;28;20041;-76
2022/12/11 01:57:32;;;;;;;56.08;37.70;;;4.80;99.90;;;5.05;90.83;100938.53;5054400;28;20048;-75
2022/12/11 02:00:00;;;;;;;55.70;37.60;;;4.90;99.90;;;4.77;90.19;100890.81;5053007;28;20091;-77
2022/12/11 02:02:41;;;;;;;55.40;36.73;;;5.00;99.90;;;4.50;90.42;100839.69;5054261;28;20053;-76
2022/12/11 02:05:10;;;;;;;57.92;37.03;;;5.10;99.90;;;4.75;89.97;100866.31;5054205;28;20073;-77
2022/12/11 02:07:44;;;;;;;58.72;38.65;;;5.10;99.90;;;5.12;89.97;100922.06;5053090;28;20494;-76
2022/12/11 02:10:13;;;;;;;55.57;37.30;;;5.10;99.90;;;5.11;89.68;100917.66;5053465;28;20059;-76
2022/12/11 02:12:55;;;;;;;57.20;39.53;;;5.10;99.90;;;5.20;89.79;100957.19;5053885;28;20033;-77
2022/12/11 02:15:32;;;;;;;59.13;38.27;;;5.10;99.90;;;4.81;89.53;100874.31;5054436;28;20132;-76
2022/12/11 02:18:27;;;;;;;59.65;40.08;;;5.10;99.90;;;5.09;89.69;100952.59;5053297;28;20068;-76
2022/12/11 02:21:03;;;;;;;57.93;38.57;;;5.10;99.90;;;5.21;89.75;100945.81;5054250;28;20037;-77
2022/12/11 02:23:56;;;;;;;54.97;36.95;;;5.10;99.90;;;5.16;89.87;100943.97;5070197;28;20525;-76
2022/12/11 02:26:48;;;;;;;57.40;36.40;;;5.10;99.90;;;5.06;89.78;100927.22;5069537;28;20053;-76
2022/12/11 02:29:23;;;;;;;56.23;37.00;;;5.00;99.90;;;5.06;90.10;100934.19;5053808;28;20044;-76
2022/12/11 02:31:57;;;;;;;57.97;37.43;;;5.00;99.90;;;5.15;89.95;100943.09;5053658;28;20048;-76
2022/12/11 02:34:32;;;;;;;58.03;37.22;;;5.00;99.90;;;5.15;89.89;100939.63;5052538;28;20143;-76
2022/12/11 02:37:06;;;;;;;54.40;37.27;;;5.00;99.90;;;5.13;90.09;100926.44;5053604;28;20087;-76
2022/12/11 02:39:39;;;;;;;50.77;33.87;;;5.10;99.90;;;5.17;89.89;100936.13;5053857;28;20040;-75
2022/12/11 02:42:10;;;;;;;55.08;34.10;;;5.10;99.90;;;5.19;89.83;100923.94;5053550;28;20453;-77
2022/12/11 02:44:41;;;;;;;53.43;35.70;;;5.10;99.90;;;5.19;89.82;100934.44;5053644;28;20068;-77
2022/12/11 02:47:14;;;;;;;52.03;34.50;;;5.20;99.90;;;5.20;89.96;100927.47;5053262;28;20037;-76
2022/12/11 02:49:47;;;;;;;55.13;35.57;;;5.10;99.90;;;4.44;89.29;100787.19;5053487;28;20049;-77
2022/12/11 02:52:20;;;;;;;55.08;35.10;;;5.10;99.90;;;5.28;89.11;100933.72;5053501;28;20098;-76
2022/12/11 02:54:52;;;;;;;56.33;35.43;;;5.20;99.90;;;5.07;89.40;100907.13;5051900;28;20045;-77
2022/12/11 02:57:29;;;;;;;54.15;34.22;;;5.20;99.90;;;5.15;89.44;100927.38;5053090;28;20052;-76
2022/12/11 02:59:59;;;;;;;57.40;36.00;;;5.10;99.90;;;5.06;89.64;100913.22;5053065;28;20047;-76
2022/12/11 03:02:28;;;;;;;54.22;35.70;;;5.00;99.90;;;4.97;89.63;100900.84;5052967;28;20065;-77
2022/12/11 03:04:56;;;;;;;55.07;35.77;;;4.90;99.90;;;4.96;89.87;100909.53;5052920;28;20470;-76
2022/12/11 03:07:29;;;;;;;50.70;33.50;;;4.90;99.90;;;4.78;90.03;100895.22;5051829;28;20041;-77
2022/12/11 03:09:58;;;;;;;52.47;33.73;;;4.80;99.90;;;4.95;90.11;100913.03;5053265;28;20037;-76
2022/12/11 03:12:30;;;;;;;50.20;33.23;;;4.80;99.90;;;4.90;89.56;100912.03;5053437;28;20051;-76
2022/12/11 03:15:02;;;;;;;50.07;32.73;;;4.80;99.90;;;4.86;89.96;100904.97;5053594;28;20116;-76
2022/12/11 03:17:35;;;;;;;49.47;32.57;;;4.80;99.90;;;4.68;90.07;100873.22;5053376;28;20044;-77
2022/12/11 03:20:13;;;;;;;53.03;32.83;;;4.80;99.90;;;4.54;90.02;100883.41;5053310;28;20044;-77
2022/12/11 03:22:48;;;;;;;54.20;34.63;;;4.80;99.90;;;4.81;89.86;100910.97;5053182;28;20037;-76
2022/12/11 03:25:22;;;;;;;50.97;32.60;;;4.80;99.90;;;4.94;89.72;100900.75;5052856;28;20124;-76
2022/12/11 03:27:57;;;;;;;51.10;33.13;;;4.80;99.90;;;4.86;89.65;100872.69;5053494;28;20041;-76
2022/12/11 03:30:29;;;;;;;52.33;35.50;;;4.90;99.90;;;5.05;89.53;100904.44;5053180;28;20036;-76
2022/12/11 03:33:03;;;;;;;53.67;34.47;;;4.90;99.90;;;4.95;89.19;100875.44;5053552;28;20045;-76
2022/12/11 03:35:35;;;;;;;51.13;32.43;;;5.00;99.90;;;5.09;89.11;100898.41;5053126;28;20033;-77
2022/12/11 03:38:10;;;;;;;48.87;32.27;;;5.00;99.90;;;5.13;88.82;100900.25;5052888;28;20053;-77
2022/12/11 03:40:43;;;;;;;49.77;33.03;;;5.00;99.90;;;5.02;88.83;100870.34;5053376;28;20037;-76
2022/12/11 03:43:12;;;;;;;52.47;32.80;;;5.00;99.90;;;4.99;88.61;100851.06;5053307;28;20071;-77
2022/12/11 03:45:43;;;;;;;49.95;31.55;;;5.10;99.90;;;5.21;88.08;100892.50;5052982;28;20037;-76
2022/12/11 03:48:13;;;;;;;47.73;30.23;;;5.10;99.90;;;5.17;87.99;100893.31;5051961;28;20044;-77
2022/12/11 03:50:43;;;;;;;45.45;28.77;;;5.10;99.90;;;5.21;87.78;100914.38;5053350;28;20091;-76
2022/12/11 03:53:12;;;;;;;43.03;29.67;;;5.10;99.90;;;5.28;87.56;100895.25;5053336;28;20424;-76
2022/12/11 03:55:42;;;;;;;43.03;28.77;;;5.20;99.90;;;5.28;87.30;100894.41;5051799;28;20055;-77
2022/12/11 03:58:10;;;;;;;44.55;29.42;;;5.20;99.90;;;5.23;87.18;100893.41;5052871;28;20102;-76
2022/12/11 04:00:41;;;;;;;40.43;27.20;;;5.10;99.90;;;5.23;86.89;100885.53;5053041;28;20079;-76
2022/12/11 04:03:16;;;;;;;39.88;26.30;;;5.10;99.90;;;5.25;86.63;100878.59;5052883;28;20052;-77
2022/12/11 04:05:47;;;;;;;39.05;27.35;;;5.10;99.90;;;5.34;86.55;100876.16;5051877;28;20136;-76
2022/12/11 04:08:16;;;;;;;;;;;5.20;99.90;;;5.28;86.56;100878.66;5053196;28;20125;-76
2022/12/11 04:10:45;;;;;;;37.20;25.17;;;5.30;99.90;;;5.32;86.03;100873.47;5052984;28;20491;-77
2022/12/11 04:13:13;;;;;;;38.00;25.90;;;5.20;99.90;;;5.38;86.17;100876.19;5053219;28;20047;-76
2022/12/11 04:15:42;;;;;;;35.60;24.52;;;5.20;99.90;;;5.32;85.78;100870.00;5052667;28;20474;-76
2022/12/11 04:26:28;;;;;;;35.27;25.07;;;5.20;99.90;;;5.17;85.18;100861.84;5051617;28;20084;-76
2022/12/11 04:28:57;;;;;;;34.22;23.65;;;5.20;99.90;;;5.21;85.39;100884.63;5051504;28;20041;-76
2022/12/11 04:31:28;;;;;;;33.97;24.17;;;5.20;99.90;;;5.18;84.97;100869.75;5052539;28;20103;-76
2022/12/11 04:33:57;;;;;;;35.42;24.27;;;5.20;99.90;;;5.18;85.05;100863.63;5052614;28;20139;-75
2022/12/11 04:36:25;;;;;;;35.93;24.77;;;5.20;99.90;;;4.99;85.26;100846.72;5054120;28;20049;-77
2022/12/11 04:38:53;;;;;;;36.53;24.33;;;5.10;99.90;;;5.00;85.76;100845.84;5056518;28;20068;-76
2022/12/11 04:41:22;;;;;;;36.33;25.67;;;5.10;99.90;;;5.15;85.47;100874.94;5056455;28;20041;-76
2022/12/11 04:43:50;;;;;;;38.90;25.75;;;5.10;99.90;;;4.83;85.81;100817.56;5056209;28;20110;-76
2022/12/11 04:46:22;;;;;;;36.53;26.53;;;5.10;99.90;;;5.11;85.59;100867.88;5056131;28;20628;-77
2022/12/11 04:48:53;;;;;;;38.30;25.63;;;5.10;99.90;;;5.09;85.75;100873.97;5056410;28;20045;-76
2022/12/11 04:51:25;;;;;;;37.03;24.00;;;5.10;99.90;;;4.83;85.96;100835.91;5056068;28;20045;-76
2022/12/11 04:53:55;;;;;;;36.00;24.70;;;5.00;99.90;;;4.16;85.83;100743.00;5055002;28;20044;-76
2022/12/11 04:56:23;;;;;;;36.72;23.98;;;4.90;99.90;;;4.88;85.93;100871.81;5056152;28;20228;-76
2022/12/11 04:58:52;;;;;;;35.63;24.97;;;4.80;99.90;;;4.94;86.01;100868.44;5056171;28;20045;-76
2022/12/11 05:01:22;;;;;;;35.90;24.20;;;4.90;99.90;;;5.01;86.00;100875.56;5071489;28;20052;-76
2022/12/11 05:03:52;;;;;;;;;;;5.00;99.90;;;4.88;85.83;100843.00;5056335;28;20045;-76
2022/12/11 05:06:20;;;;;;;32.07;23.00;;;5.00;99.90;;;4.97;85.05;100865.88;5055906;28;20020;-76
2022/12/11 05:08:49;;;;;;;31.90;23.40;;;4.90;99.90;;;4.90;84.78;100851.78;5056243;28;20052;-76
2022/12/11 05:11:17;;;;;;;33.33;23.07;;;4.90;99.90;;;4.90;84.85;100854.38;5056116;28;20398;-76
2022/12/11 05:13:46;;;;;;;33.03;23.30;;;4.80;99.90;;;4.90;84.45;100853.50;5055743;28;20041;-76
2022/12/11 05:16:16;;;;;;;30.90;22.40;;;4.80;99.90;;;4.80;84.20;100854.22;5054502;28;20396;-76
2022/12/11 05:18:48;;;;;;;32.17;22.43;;;4.80;99.90;;;4.65;84.11;100844.31;5054741;28;20504;-76
2022/12/11 05:21:18;;;;;;;33.33;23.23;;;4.70;99.90;;;4.50;84.22;100837.06;5055514;28;20433;-75
2022/12/11 05:23:46;;;;;;;33.25;24.58;;;4.60;99.90;;;4.64;84.83;100836.44;5055792;28;20037;-76
2022/12/11 05:26:17;;;;;;;33.30;23.70;;;4.50;99.90;;;4.65;85.16;100832.94;5055415;28;20045;-76
2022/12/11 05:28:46;;;;;;;32.67;22.87;;;4.50;99.90;;;4.65;84.90;100835.56;5071100;28;20045;-76
2022/12/11 05:31:19;;;;;;;37.00;23.93;;;4.60;99.90;;;4.24;84.55;100757.13;5055270;28;20040;-76
2022/12/11 05:33:50;;;;;;;33.53;23.97;;;4.60;99.90;;;4.53;84.78;100816.16;5071051;28;20045;-76
2022/12/11 05:36:23;;;;;;;;;;;4.50;99.90;;;4.49;84.21;100805.63;5055705;28;20073;-76
2022/12/11 05:38:53;;;;;;;37.73;23.73;;;4.60;99.90;;;4.66;84.21;100834.72;5055259;28;19920;-76
2022/12/11 05:41:24;;;;;;;34.67;24.85;;;4.60;99.90;;;4.61;84.55;100842.50;5055009;28;20140;-77
2022/12/11 05:43:52;;;;;;;;;;;4.50;99.90;;;4.35;84.37;100807.97;5071282;28;20045;-76
2022/12/11 05:46:23;;;;;;;32.70;23.00;;;4.60;99.90;;;4.29;84.41;100806.97;5054565;28;20527;-76
2022/12/11 05:48:54;;;;;;;35.53;24.00;;;4.40;99.90;;;4.38;84.92;100815.88;5054029;28;20398;-76
2022/12/11 05:51:24;;;;;;;39.50;25.93;;;4.40;99.90;;;4.29;84.79;100825.28;5055032;28;20041;-75
2022/12/11 05:53:54;;;;;;;38.17;25.05;;;4.30;99.90;;;4.08;85.04;100783.00;5055547;28;20137;-75
2022/12/11 05:56:25;;;;;;;40.35;24.52;;;4.30;99.90;;;4.36;85.34;100829.78;5054761;28;20051;-76
2022/12/11 05:58:54;;;;;;;37.93;24.63;;;4.30;99.90;;;4.38;85.75;100839.44;5054857;28;20444;-75
2022/12/11 06:01:27;;;;;;;37.45;25.20;;;4.30;99.90;;;4.23;85.71;100822.53;5055094;28;20053;-77
2022/12/11 06:03:57;;;;;;;42.23;25.50;;;4.30;99.90;;;4.19;86.15;100824.22;5054793;28;20041;-76
2022/12/11 06:06:28;;;;;;;38.85;25.20;;;4.20;99.90;;;4.11;85.96;100809.19;5054937;28;20040;-76
2022/12/11 06:08:58;;;;;;;40.83;24.60;;;4.20;99.90;;;4.24;85.73;100851.34;5054737;28;20119;-76
2022/12/11 06:11:30;;;;;;;40.13;25.70;;;4.20;99.90;;;4.24;86.31;100845.28;5053646;28;20099;-76
2022/12/11 06:13:59;;;;;;;42.40;25.77;;;4.20;99.90;;;4.20;86.50;100859.13;5055142;28;20095;-76
2022/12/11 06:16:27;;;;;;;44.40;27.00;;;4.20;99.90;;;3.97;87.06;100860.38;5054820;28;20041;-76
2022/12/11 06:18:56;;;;;;;41.43;26.87;;;4.10;99.90;;;3.96;86.99;100801.94;5054985;28;20103;-76
2022/12/11 06:21:30;;;;;;;45.03;26.63;;;4.20;99.90;;;3.98;87.58;100831.63;5054950;28;20087;-76
2022/12/11 06:24:01;;;;;;;44.07;27.90;;;4.10;99.90;;;4.08;88.09;100837.94;5054950;28;20045;-77
2022/12/11 06:26:30;;;;;;;45.57;28.07;;;4.10;99.90;;;3.90;88.24;100773.03;5054236;28;20045;-76
2022/12/11 06:28:59;;;;;;;41.53;26.07;;;4.20;99.90;;;4.41;87.65;100855.19;5054484;28;20037;-76
2022/12/11 06:31:28;;;;;;;45.67;27.53;;;4.40;99.90;;;4.38;87.65;100854.25;5054437;28;20045;-76
2022/12/11 06:33:56;;;;;;;45.50;27.63;;;4.40;99.90;;;4.37;88.04;100842.94;5054127;28;20037;-76
2022/12/11 06:36:26;;;;;;;45.03;28.30;;;4.40;99.90;;;4.36;88.12;100849.00;5054107;28;20045;-76
2022/12/11 06:38:55;;;;;;;43.20;27.08;;;4.40;99.90;;;4.41;88.09;100844.72;5054155;28;20053;-76
2022/12/11 06:41:23;;;;;;;45.30;28.47;;;4.40;99.90;;;4.46;87.98;100850.94;5054030;28;20077;-76
2022/12/11 06:43:52;;;;;;;44.97;26.63;;;4.40;99.90;;;4.35;87.87;100825.41;5053218;28;20118;-76
2022/12/11 06:46:21;;;;;;;44.60;28.27;;;4.50;99.90;;;4.30;87.49;100804.38;5053856;28;20045;-76
2022/12/11 06:48:49;;;;;;;41.53;26.87;;;4.50;99.90;;;4.67;87.54;100852.19;5052853;28;20494;-76
2022/12/11 06:51:20;;;;;;;39.73;25.53;;;4.60;99.90;;;4.66;87.07;100856.56;5052745;28;20083;-76
2022/12/11 06:53:54;;;;;;;45.53;26.73;;;4.60;99.90;;;4.27;86.78;100833.13;5053715;28;20044;-76
2022/12/11 06:56:24;;;;;;;42.17;25.70;;;4.40;99.90;;;3.78;87.69;100767.53;5053684;28;20495;-76
2022/12/11 06:58:52;;;;;;;43.13;26.92;;;4.40;99.90;;;4.38;88.04;100849.03;5053074;28;20341;-74
2022/12/11 07:01:23;;;;;;;42.50;26.27;;;4.30;99.90;;;4.32;88.16;100849.78;5054143;28;20418;-76
2022/12/11 07:03:53;;;;;;;43.53;26.00;;;4.30;99.90;;;4.19;87.76;100829.47;5052520;28;20095;-76
2022/12/11 07:06:23;;;;;;;37.33;24.70;;;4.30;99.90;;;3.91;88.11;100808.78;5053850;28;20083;-76
2022/12/11 07:08:53;;;;;;;42.10;25.20;;;4.20;99.90;;;4.11;88.45;100846.72;5053424;28;20127;-76
2022/12/11 07:11:22;;;;;;;40.42;24.63;;;4.20;99.90;;;4.16;88.70;100836.38;5053548;28;20095;-76
2022/12/11 07:13:53;;;;;;;42.97;24.27;;;4.20;99.90;;;4.09;88.65;100840.59;5052408;28;20441;-76
2022/12/11 07:16:22;;;;;;;39.80;25.30;;;4.20;99.90;;;4.09;89.06;100839.69;5053357;28;20037;-76
2022/12/11 07:18:51;;;;;;;45.57;26.57;;;4.10;99.90;;;4.09;88.64;100840.59;5053294;28;20557;-75
2022/12/11 07:21:20;;;;;;;43.83;25.30;;;4.10;99.90;;;3.88;88.74;100810.47;5053614;28;20146;-75
2022/12/11 07:23:50;;;;;;;39.50;25.70;;;4.10;99.90;;;3.93;89.12;100827.16;5053723;28;20059;-75
2022/12/11 07:26:21;;;;;;;42.03;25.67;;;4.20;99.90;;;3.97;88.89;100822.00;5053155;28;20098;-76
2022/12/11 07:28:50;;;;;;;38.83;24.30;;;4.10;99.90;;;4.16;88.72;100847.69;5053265;28;20098;-75
2022/12/11 07:31:22;;;;;;;37.27;23.43;;;4.20;99.90;;;4.17;87.66;100831.16;5053183;28;20033;-75
2022/12/11 07:33:54;;;;;;;36.43;24.13;;;4.30;99.90;;;4.28;87.02;100853.19;5053035;28;20041;-75
2022/12/11 07:36:24;;;;;;;33.13;23.07;;;4.30;99.90;;;4.39;86.39;100853.41;5052919;28;20044;-73
2022/12/11 07:38:52;;;;;;;33.47;22.10;;;4.30;99.90;;;4.15;86.00;100805.78;5053244;28;20075;-73
2022/12/11 07:41:23;;;;;;;28.97;19.70;;;4.40;99.90;;;4.23;85.16;100814.69;5053490;28;20041;-72
2022/12/11 07:43:55;;;;;;;29.60;19.70;;;4.40;99.90;;;4.47;84.66;100851.84;5051995;28;20368;-69
2022/12/11 07:46:28;;;;;;;26.90;19.63;;;4.40;99.90;;;4.48;84.54;100854.47;5052953;28;20048;-68
2022/12/11 07:48:56;;;;;;;26.20;18.13;;;4.50;99.90;;;4.40;84.00;100832.50;5053222;28;20399;-68
2022/12/11 07:51:27;;;;;;;27.20;19.63;;;4.50;99.90;;;4.55;84.17;100858.97;5052879;28;20404;-68
2022/12/11 07:53:58;;;;;;;26.43;18.93;;;4.50;99.90;;;4.54;83.84;100872.94;5052897;28;20510;-68
2022/12/11 07:56:30;;;;;;;35.43;20.13;;;4.50;99.90;;;4.56;84.09;100868.63;5052833;28;20045;-68
2022/12/11 07:59:00;;;;;;;27.17;18.53;;;4.50;99.90;;;4.59;83.87;100866.03;5068578;28;20048;-68
2022/12/11 08:01:31;;;;;;;28.10;20.13;;;4.50;99.90;;;4.52;83.79;100852.81;5053078;28;20095;-67
2022/12/11 08:03:59;;;;;;;30.77;21.00;;;4.60;99.90;;;4.71;83.61;100860.16;5053045;28;20110;-68
2022/12/11 08:06:30;;;;;;;33.20;21.27;;;4.60;99.90;;;4.78;83.62;100858.53;5052696;28;20052;-67
2022/12/11 08:09:00;;;;;;;33.83;21.10;;;4.70;99.90;;;4.84;83.54;100870.00;5052691;28;20047;-68
2022/12/11 08:11:30;;;;;;;29.17;20.13;;;4.70;99.90;;;4.86;82.96;100870.06;5056278;28;20052;-68
2022/12/11 08:13:59;;;;;;;29.58;20.05;;;4.80;99.90;;;4.86;83.05;100865.66;5055771;28;20139;-70
2022/12/11 08:16:28;;;;;;;30.93;20.23;;;4.80;99.90;;;4.63;82.53;100813.72;5056520;28;20045;-70
2022/12/11 08:18:57;;;;;;;30.33;20.90;;;4.80;99.90;;;4.94;82.70;100866.69;5056863;28;20033;-71
2022/12/11 08:21:28;;;;;;;30.77;19.40;;;4.90;99.90;;;5.01;81.91;100865.97;5056588;28;20581;-75
2022/12/11 08:23:57;;;;;;;24.25;18.38;;;4.90;99.90;;;4.83;81.34;100830.69;5056608;28;20045;-71
2022/12/11 08:26:28;;;;;;;29.27;20.53;;;5.00;99.90;;;5.09;81.29;100874.81;5056567;28;20069;-65
2022/12/11 08:28:58;;;;;;;29.77;19.47;;;5.00;99.90;;;5.03;81.17;100856.38;5055362;28;20107;-71
2022/12/11 08:31:27;;;;;;;34.55;22.67;;;5.00;99.90;;;5.02;81.02;100869.44;5056479;28;20068;-70
2022/12/11 08:33:57;;;;;;;34.78;22.60;;;5.00;99.90;;;5.01;80.36;100873.84;5056940;28;20071;-70
2022/12/11 08:36:25;;;;;;;33.90;23.50;;;5.00;99.90;;;4.92;80.62;100862.28;5071936;28;20136;-71
2022/12/11 08:38:55;;;;;;;34.63;23.17;;;4.90;99.90;;;5.00;80.47;100873.78;5056627;28;20081;-70
2022/12/11 08:41:27;;;;;;;33.15;21.90;;;4.90;99.90;;;5.03;80.53;100879.94;5056719;28;20059;-70
2022/12/11 08:43:59;;;;;;;33.77;22.70;;;5.00;99.90;;;5.06;80.78;100876.50;5056463;28;20114;-70
2022/12/11 08:46:30;;;;;;;37.53;24.07;;;5.00;99.90;;;4.72;80.52;100822.63;5071792;28;20064;-69
2022/12/11 08:48:59;;;;;;;42.20;25.53;;;5.00;99.90;;;4.50;80.81;100774.22;5055085;28;20376;-69
2022/12/11 08:51:29;;;;;;;40.67;26.10;;;5.00;99.90;;;5.08;80.95;100865.22;5056234;28;20037;-68
2022/12/11 08:54:00;;;;;;;42.23;27.13;;;5.00;99.90;;;3.25;81.09;100540.75;5056241;28;20403;-69
2022/12/11 08:56:29;;;;;;;48.05;28.73;;;5.10;99.90;;;5.20;81.65;100872.41;5055884;28;20397;-71
2022/12/11 08:59:02;;;;;;;46.13;28.40;;;5.10;99.90;;;5.22;81.59;100870.69;5055566;28;20544;-69
2022/12/11 09:01:31;;;;;;;47.50;28.50;;;5.10;99.90;;;5.18;81.84;100867.13;5056296;28;20102;-69
2022/12/11 09:03:59;;;;;;;46.60;29.13;;;5.10;99.90;;;5.28;82.04;100869.03;5055805;28;20091;-72
2022/12/11 09:06:32;;;;;;;53.17;30.67;;;5.20;99.90;;;5.29;82.36;100875.16;5055753;28;20041;-72
2022/12/11 09:09:02;;;;;;;57.37;32.53;;;5.20;99.90;;;5.31;82.66;100876.97;5054931;28;20166;-70
2022/12/11 09:11:34;;;;;;;49.53;29.87;;;5.20;99.90;;;4.74;82.20;100778.13;5055624;28;20127;-72
2022/12/11 09:14:05;;;;;;;47.00;29.00;;;5.20;99.90;;;5.18;82.68;100845.28;5055811;28;20071;-70
2022/12/11 09:16:40;;;;;;;51.25;30.67;;;5.30;99.90;;;5.32;82.67;100867.38;5055611;28;20041;-71
2022/12/11 09:19:13;;;;;;;54.28;31.10;;;5.30;99.90;;;5.29;82.84;100875.16;5071324;28;20487;-70
2022/12/11 09:21:43;;;;;;;50.10;30.30;;;5.30;99.90;;;5.08;83.07;100846.88;5054983;28;20132;-71
2022/12/11 09:24:12;;;;;;;47.13;28.98;;;5.20;99.90;;;5.09;83.62;100861.72;5055663;28;20037;-71
2022/12/11 09:26:42;;;;;;;53.97;30.60;;;5.10;99.90;;;4.81;83.55;100833.28;5055797;28;20041;-69
2022/12/11 09:29:13;;;;;;;51.40;31.53;;;5.00;99.90;;;4.92;83.52;100863.16;5055261;28;20098;-72
2022/12/11 09:31:42;;;;;;;52.23;31.27;;;4.90;99.90;;;4.86;83.89;100880.53;5055313;28;20461;-69
2022/12/11 09:34:13;;;;;;;49.93;31.23;;;4.90;99.90;;;5.04;84.20;100870.34;5055181;28;20045;-71
2022/12/11 09:36:43;;;;;;;50.40;31.17;;;4.90;99.90;;;5.02;84.47;100869.44;5053900;28;20053;-70
2022/12/11 09:39:13;;;;;;;51.10;30.52;;;5.00;99.90;;;4.80;84.85;100822.78;5055565;28;20092;-70
2022/12/11 09:41:53;;;;;;;53.53;31.48;;;5.00;99.90;;;4.95;84.64;100847.50;5055198;28;20102;-70
2022/12/11 09:44:34;;;;;;;55.33;31.33;;;5.00;99.90;;;5.12;84.37;100858.28;5055313;28;20136;-72
2022/12/11 09:47:02;;;;;;;51.47;31.60;;;5.10;99.90;;;5.14;84.41;100854.84;5055602;28;20037;-71
2022/12/11 09:49:38;;;;;;;51.23;31.10;;;5.10;99.90;;;5.15;84.25;100853.09;5053903;28;20053;-70
2022/12/11 09:52:14;;;;;;;53.60;31.87;;;5.10;99.90;;;5.10;84.48;100845.16;5054952;28;20051;-70
2022/12/11 09:54:49;;;;;;;58.90;29.67;;;5.10;99.90;;;5.25;83.96;100860.25;5055389;28;20037;-72
2022/12/11 09:57:45;;;;;;;47.13;30.00;;;5.10;99.90;;;5.27;84.17;100863.78;5055048;28;20460;-71
2022/12/11 10:00:26;;;;;;;54.40;31.57;;;5.20;99.90;;;2.86;83.88;100435.50;5070458;28;20053;-71
2022/12/11 10:03:28;;;;;;;55.50;31.48;;;5.20;99.90;;;5.28;84.44;100863.78;5054754;28;20110;-71
2022/12/11 10:06:06;;;;;;;55.43;31.63;;;5.20;99.90;;;5.33;83.76;100870.00;5054723;28;20049;-71
2022/12/11 10:08:42;;;;;;;53.47;31.43;;;5.20;99.90;;;5.26;84.19;100868.16;5055278;28;20052;-71
2022/12/11 10:11:43;;;;;;;54.40;32.90;;;5.20;99.90;;;4.97;83.64;100827.47;5054398;28;20048;-69
2022/12/11 10:14:19;;;;;;;52.63;31.90;;;5.20;99.90;;;5.14;83.44;100846.97;5054406;28;20542;-73
2022/12/11 10:16:54;;;;;;;52.35;31.58;;;5.20;99.90;;;5.30;83.37;100874.34;5054536;28;20041;-71
2022/12/11 10:19:28;;;;;;;53.67;30.00;;;5.20;99.90;;;5.10;82.73;100842.53;5054250;28;20039;-74
2022/12/11 10:21:58;;;;;;;54.20;31.15;;;5.10;99.90;;;5.14;82.62;100840.84;5053244;28;20053;-73
2022/12/11 10:24:35;;;;;;;54.70;31.63;;;5.10;99.90;;;5.25;82.92;100860.25;5054075;28;20049;-73
2022/12/11 10:27:30;;;;;;;50.95;31.08;;;5.10;99.90;;;4.59;83.25;100736.81;5054111;28;20429;-73
2022/12/11 10:30:07;;;;;;;48.93;31.10;;;5.20;99.90;;;5.08;83.39;100852.09;5054390;28;20048;-73
2022/12/11 10:32:50;;;;;;;59.70;34.57;;;5.10;99.90;;;4.93;83.70;100845.72;5054661;28;20487;-73
2022/12/11 10:35:30;;;;;;;54.80;32.33;;;5.00;99.90;;;4.94;84.13;100845.72;5054066;28;20483;-73
2022/12/11 10:38:12;;;;;;;57.67;33.80;;;5.00;99.90;;;4.69;84.26;100792.88;5054168;28;20059;-73
2022/12/11 10:40:47;;;;;;;63.80;36.90;;;5.00;99.90;;;5.05;84.74;100840.69;5069660;28;20141;-73
2022/12/11 10:43:15;;;;;;;63.13;35.57;;;5.00;99.90;;;4.13;84.18;100674.03;5054023;28;20491;-73